Time;durP1;ratioP1;P1;durP2;ratioP2;P2;SDS_P1;SDS_P2;PMS_P1;PMS_P2;Temp;Humidity;BMP_temperature;BMP_pressure;BME280_temperature;BME280_humidity;BME280_pressure;Samples;Min_cycle;Max_cycle;Signal;HPM_P1;HPM_P2
2022/12/07 00:04:49;;;;;;;30.20;13.80;;;;;;;2.42;85.96;99206.42;210079;1295;139815;-66
2022/12/07 00:09:52;;;;;;;28.00;15.60;;;;;;;2.43;86.10;99206.99;210162;1297;140507;-70
2022/12/07 00:14:56;;;;;;;26.10;16.60;;;;;;;2.51;86.27;99201.71;210255;1294;140765;-68
2022/12/07 00:20:00;;;;;;;28.00;15.10;;;;;;;2.49;86.03;99197.86;210157;1297;140484;-70
2022/12/07 00:25:04;;;;;;;27.30;14.10;;;;;;;2.49;86.17;99195.35;210045;1293;140757;-68
2022/12/07 00:30:08;;;;;;;25.00;16.60;;;;;;;2.48;86.07;99198.09;210318;1294;141753;-67
2022/12/07 00:35:11;;;;;;;64.70;30.20;;;;;;;2.46;86.11;99199.47;210270;1294;139819;-67
2022/12/07 00:40:14;;;;;;;39.40;22.10;;;;;;;2.48;86.20;99195.35;210037;1295;141786;-69
2022/12/07 00:45:18;;;;;;;28.60;16.20;;;;;;;2.56;86.46;99195.90;209657;1298;221721;-72
2022/12/07 00:50:21;;;;;;;36.70;17.80;;;;;;;2.54;86.25;99193.52;210244;1295;139976;-69
2022/12/07 00:55:24;;;;;;;30.40;21.70;;;;;;;2.55;86.06;99191.21;210163;1294;140787;-69
2022/12/07 01:00:28;;;;;;;34.60;21.40;;;;;;;2.55;86.31;99190.23;209964;1287;141522;-68
2022/12/07 01:05:31;;;;;;;21.40;12.50;;;;;;;2.51;86.33;99186.62;210049;1287;139950;-69
2022/12/07 01:10:35;;;;;;;21.30;13.40;;;;;;;2.55;86.23;99188.26;209930;1294;140256;-68
2022/12/07 01:15:43;;;;;;;19.80;13.00;;;;;;;2.55;86.23;99183.77;209390;1295;141214;-68
2022/12/07 01:20:57;;;;;;;19.60;11.00;;;;;;;2.49;86.10;99183.77;207800;1288;139328;-68
2022/12/07 01:26:05;;;;;;;24.40;15.10;;;;;;;2.48;86.19;99178.30;210165;1295;140294;-68
2022/12/07 01:31:11;;;;;;;24.30;15.40;;;;;;;2.42;86.24;99174.58;210168;1298;140685;-69
2022/12/07 01:36:15;;;;;;;13.10;8.80;;;;;;;2.42;86.68;99172.39;207999;1298;139798;-70
2022/12/07 01:41:21;;;;;;;20.50;12.80;;;;;;;2.37;86.37;99168.27;207829;1295;139103;-68
2022/12/07 01:46:24;;;;;;;17.80;13.00;;;;;;;2.39;86.39;99167.40;210087;1287;141696;-70
2022/12/07 01:51:28;;;;;;;18.60;13.10;;;;;;;2.44;86.72;99166.77;209741;1294;140399;-70
2022/12/07 01:56:32;;;;;;;12.50;8.80;;;;;;;2.45;86.58;99160.02;208622;1294;139518;-68
2022/12/07 02:01:35;;;;;;;17.40;10.60;;;;;;;2.38;86.44;99158.41;210147;1294;139775;-68
2022/12/07 02:06:41;;;;;;;14.00;8.50;;;;;;;2.40;86.47;99148.50;210246;1294;140300;-65
2022/12/07 02:11:46;;;;;;;9.80;8.70;;;;;;;2.43;86.12;99143.21;210203;1301;140496;-66
2022/12/07 02:17:28;;;;;;;11.20;7.60;;;;;;;2.38;86.20;99141.58;210315;1287;140177;-68
2022/12/07 02:23:07;;;;;;;9.10;8.20;;;;;;;2.42;86.12;99141.96;210155;1294;142016;-68
2022/12/07 02:28:35;;;;;;;6.90;6.20;;;;;;;2.36;86.34;99137.88;210164;1298;140625;-65
2022/12/07 02:34:01;;;;;;;7.00;5.70;;;;;;;2.34;86.21;99138.69;209029;1288;138817;-67
2022/12/07 02:39:26;;;;;;;9.10;6.10;;;;;;;2.39;86.19;99135.67;210209;1295;139946;-69
2022/12/07 02:44:32;;;;;;;8.40;6.70;;;;;;;2.44;86.66;99136.79;210021;1297;161877;-67
2022/12/07 02:49:38;;;;;;;10.80;9.10;;;;;;;2.42;86.41;99133.71;207877;1297;139483;-67
2022/12/07 02:54:42;;;;;;;93.80;41.20;;;;;;;2.37;86.37;99120.25;210276;1295;142886;-70
2022/12/07 02:59:47;;;;;;;66.80;39.60;;;;;;;2.32;85.97;99117.31;209947;1297;140428;-69
2022/12/07 03:04:57;;;;;;;19.50;13.40;;;;;;;2.29;86.24;99117.74;208922;1287;140212;-69
2022/12/07 03:10:10;;;;;;;15.10;10.30;;;;;;;2.25;86.22;99116.51;210316;1301;140083;-67
2022/12/07 03:15:33;;;;;;;10.60;8.20;;;;;;;2.24;86.18;99113.70;209935;1298;140231;-69
2022/12/07 03:20:39;;;;;;;12.20;10.70;;;;;;;2.27;86.27;99111.02;209379;1297;140441;-69
2022/12/07 03:25:47;;;;;;;13.30;9.80;;;;;;;2.22;86.16;99110.55;209658;1295;139670;-69
2022/12/07 03:31:01;;;;;;;8.70;7.00;;;;;;;2.25;86.09;99109.52;210101;1295;140914;-69
2022/12/07 03:36:27;;;;;;;12.60;7.60;;;;;;;2.25;86.09;99103.08;210184;1287;140201;-68
2022/12/07 03:41:36;;;;;;;9.60;7.40;;;;;;;2.14;85.98;99102.31;209926;1297;219442;-69
2022/12/07 03:47:09;;;;;;;7.90;6.70;;;;;;;2.12;85.98;99091.70;210099;1297;140360;-69
2022/12/07 03:52:36;;;;;;;9.30;7.30;;;;;;;2.08;86.10;99087.86;210234;1292;138824;-69
2022/12/07 03:57:43;;;;;;;7.50;6.30;;;;;;;2.07;86.32;99089.45;210264;1302;149665;-69
2022/12/07 04:08:29;;;;;;;8.20;6.20;;;;;;;2.01;85.90;99084.73;206582;1335;657307;-68
2022/12/07 04:14:18;;;;;;;7.80;7.00;;;;;;;1.94;86.01;99090.93;207950;1305;139510;-68
2022/12/07 04:18:56;;;;;;;7.40;6.40;;;;;;;1.90;86.19;99085.80;208868;1313;186818;-69
2022/12/07 04:24:00;;;;;;;9.70;5.80;;;;;;;1.86;86.06;99086.11;209132;1304;138891;-69
2022/12/07 04:29:05;;;;;;;5.80;5.30;;;;;;;1.93;86.24;99084.85;209281;1303;138871;-68
2022/12/07 04:34:11;;;;;;;5.00;4.20;;;;;;;1.91;86.21;99083.59;209028;1311;220591;-68
2022/12/07 04:39:24;;;;;;;5.70;4.60;;;;;;;1.87;86.09;99084.98;208954;1303;139037;-68
2022/12/07 04:44:28;;;;;;;7.00;5.80;;;;;;;1.90;86.24;99075.05;208102;1295;140386;-68
2022/12/07 04:49:32;;;;;;;9.60;7.10;;;;;;;1.89;86.28;99073.99;210515;1292;139488;-68
2022/12/07 04:54:36;;;;;;;8.00;6.40;;;;;;;1.84;86.15;99068.15;207604;1294;139305;-67
2022/12/07 04:59:39;;;;;;;9.40;7.20;;;;;;;1.87;86.23;99065.20;206884;1289;139243;-68
2022/12/07 05:04:48;;;;;;;7.40;5.60;;;;;;;1.86;86.52;99055.95;209743;1295;140433;-69
2022/12/07 05:09:52;;;;;;;8.60;5.90;;;;;;;1.89;86.75;99055.85;210067;1296;139708;-69
2022/12/07 05:14:55;;;;;;;9.70;7.90;;;;;;;1.91;86.62;99059.20;207280;1287;140052;-68
2022/12/07 05:19:59;;;;;;;10.10;5.90;;;;;;;1.94;86.66;99064.11;209983;1298;141007;-67
2022/12/07 05:25:04;;;;;;;11.40;7.50;;;;;;;1.92;87.05;99068.27;208997;1296;139768;-69
2022/12/07 05:30:08;;;;;;;12.10;7.10;;;;;;;1.95;87.26;99068.17;210145;1293;139140;-68
2022/12/07 05:35:11;;;;;;;10.60;8.40;;;;;;;1.99;86.62;99071.87;207151;1285;140679;-67
2022/12/07 05:40:16;;;;;;;8.80;7.60;;;;;;;1.94;86.93;99075.08;209664;1294;139326;-68
2022/12/07 05:45:20;;;;;;;6.70;5.20;;;;;;;1.95;87.22;99078.85;209972;1299;138867;-69
2022/12/07 05:50:28;;;;;;;11.00;7.50;;;;;;;1.97;86.87;99081.23;207320;1294;139447;-68
2022/12/07 05:55:31;;;;;;;9.60;7.20;;;;;;;1.96;87.21;99083.39;207127;1300;139459;-68
2022/12/07 06:00:37;;;;;;;11.20;9.60;;;;;;;1.97;87.54;99083.10;207626;1293;138934;-69
2022/12/07 06:05:41;;;;;;;11.20;7.30;;;;;;;2.07;87.42;99079.15;210240;1301;139127;-69
2022/12/07 06:12:33;;;;;;;12.60;8.70;;;;;;;2.08;87.46;99076.52;210184;1298;138841;-69
2022/12/07 06:16:11;;;;;;;14.40;10.10;;;;;;;2.10;87.58;99077.84;210418;1303;140130;-68
2022/12/07 06:21:17;;;;;;;13.80;9.70;;;;;;;2.20;87.56;99079.19;210276;1301;139747;-68
2022/12/07 06:26:21;;;;;;;11.10;7.60;;;;;;;2.25;87.41;99076.38;210425;1301;139559;-68
2022/12/07 06:31:25;;;;;;;12.00;8.40;;;;;;;2.26;87.58;99082.58;210182;1295;139141;-69
2022/12/07 06:36:30;;;;;;;16.30;10.10;;;;;;;2.29;87.78;99082.05;207854;1303;138495;-68
2022/12/07 06:41:38;;;;;;;14.80;8.50;;;;;;;2.37;87.60;99078.36;209103;1288;140903;-69
2022/12/07 06:46:43;;;;;;;10.30;6.60;;;;;;;2.39;87.56;99083.35;210247;1295;140444;-68
2022/12/07 06:51:46;;;;;;;17.70;8.10;;;;;;;2.36;87.43;99086.30;210347;1296;139005;-68
2022/12/07 06:56:51;;;;;;;9.20;6.70;;;;;;;2.41;87.58;99084.05;210158;1295;140169;-68
2022/12/07 07:01:55;;;;;;;17.90;9.50;;;;;;;2.41;87.39;99085.23;209631;1303;138865;-69
2022/12/07 07:06:59;;;;;;;15.30;9.70;;;;;;;2.37;87.44;99080.64;210201;1296;140227;-69
2022/12/07 07:12:03;;;;;;;12.60;9.10;;;;;;;2.41;87.47;99082.30;208481;1287;139944;-69
2022/12/07 07:17:07;;;;;;;9.50;7.50;;;;;;;2.45;87.53;99084.57;207074;1294;139971;-68
2022/12/07 07:22:12;;;;;;;11.10;8.00;;;;;;;2.45;87.68;99089.67;206965;1289;138266;-68
2022/12/07 07:27:16;;;;;;;12.80;7.40;;;;;;;2.48;87.58;99087.31;206896;1287;139511;-68
2022/12/07 07:32:21;;;;;;;9.00;7.50;;;;;;;2.49;87.68;99088.98;206942;1297;140546;-68
2022/12/07 07:37:25;;;;;;;10.50;8.10;;;;;;;2.49;87.66;99095.18;207032;1296;139100;-67
2022/12/07 07:42:29;;;;;;;10.70;6.60;;;;;;;2.50;87.45;99097.05;206874;1297;138823;-69
2022/12/07 07:47:33;;;;;;;12.40;8.10;;;;;;;2.49;87.01;99094.57;206880;1301;139633;-69
2022/12/07 07:52:37;;;;;;;9.50;6.60;;;;;;;2.47;87.19;99098.13;207124;1304;138741;-67
2022/12/07 07:57:40;;;;;;;11.00;6.70;;;;;;;2.41;87.35;99104.56;207075;1299;139502;-68
2022/12/07 08:02:45;;;;;;;10.70;7.60;;;;;;;2.36;87.08;99106.21;207081;1300;139319;-67
2022/12/07 08:07:50;;;;;;;11.60;6.90;;;;;;;2.36;87.11;99113.89;210278;1302;141539;-68
2022/12/07 08:13:15;;;;;;;9.00;6.50;;;;;;;2.37;87.20;99113.45;210492;1296;138994;-68
2022/12/07 08:18:20;;;;;;;9.00;6.00;;;;;;;2.41;87.07;99111.48;210570;1291;140827;-68
2022/12/07 08:23:24;;;;;;;10.90;8.20;;;;;;;2.51;87.20;99112.99;210556;1292;139185;-69
2022/12/07 08:28:40;;;;;;;8.90;7.10;;;;;;;2.58;87.24;99106.95;210628;1292;218852;-68
2022/12/07 08:33:46;;;;;;;9.50;7.60;;;;;;;2.61;87.07;99108.70;207560;1293;140368;-68
2022/12/07 08:38:50;;;;;;;8.80;6.30;;;;;;;2.69;86.93;99105.17;207218;1295;140777;-68
2022/12/07 08:44:15;;;;;;;12.60;9.60;;;;;;;2.67;87.10;99104.03;207597;1286;140383;-68
2022/12/07 08:49:24;;;;;;;9.00;7.40;;;;;;;2.65;87.22;99107.66;210108;1292;139800;-68
2022/12/07 08:54:28;;;;;;;9.70;7.70;;;;;;;2.69;87.06;99109.13;210019;1292;245989;-68
2022/12/07 08:59:35;;;;;;;12.00;9.40;;;;;;;2.62;86.70;99111.83;210332;1292;139466;-68
2022/12/07 09:04:39;;;;;;;10.50;7.70;;;;;;;2.57;86.73;99104.04;210271;1292;139275;-68
2022/12/07 09:09:43;;;;;;;12.50;9.80;;;;;;;2.54;86.62;99099.81;209133;1300;139297;-68
2022/12/07 09:14:47;;;;;;;10.10;7.80;;;;;;;2.52;86.80;99101.83;210105;1286;140097;-69
2022/12/07 09:19:51;;;;;;;10.00;7.00;;;;;;;2.53;87.04;99094.91;210721;1292;140589;-68
2022/12/07 09:24:57;;;;;;;11.20;9.20;;;;;;;2.60;86.77;99091.66;210663;1292;140449;-68
2022/12/07 09:30:03;;;;;;;11.10;8.10;;;;;;;2.64;86.90;99089.40;210532;1286;139017;-68
2022/12/07 09:35:07;;;;;;;8.40;5.40;;;;;;;2.56;86.59;99085.16;210619;1299;139768;-68
2022/12/07 09:40:12;;;;;;;9.30;7.10;;;;;;;2.50;86.23;99078.98;210463;1295;140341;-68
2022/12/07 09:45:21;;;;;;;7.30;4.20;;;;;;;2.44;86.36;99068.34;208940;1294;138713;-67
2022/12/07 09:50:28;;;;;;;12.00;7.70;;;;;;;2.43;86.89;99064.17;207486;1285;138614;-67
2022/12/07 09:55:33;;;;;;;9.30;6.30;;;;;;;2.46;87.06;99062.23;208712;1285;139259;-68
2022/12/07 10:00:37;;;;;;;8.80;6.40;;;;;;;2.55;86.90;99062.90;210374;1298;138572;-68
2022/12/07 10:05:45;;;;;;;9.10;7.00;;;;;;;2.59;86.82;99058.34;210392;1295;139777;-68
2022/12/07 10:10:55;;;;;;;6.50;5.60;;;;;;;2.54;86.65;99051.97;210388;1286;138858;-68
2022/12/07 10:16:00;;;;;;;7.10;6.20;;;;;;;2.54;86.51;99050.75;210552;1292;140071;-68
2022/12/07 10:21:17;;;;;;;6.80;6.00;;;;;;;2.51;86.36;99045.52;210471;1295;140911;-68
2022/12/07 10:26:28;;;;;;;9.80;7.30;;;;;;;2.46;86.48;99039.84;210594;1294;138975;-68
2022/12/07 10:31:32;;;;;;;10.00;8.20;;;;;;;2.53;86.49;99038.21;210541;1295;138756;-69
2022/12/07 10:36:38;;;;;;;8.40;7.60;;;;;;;2.55;86.65;99033.75;210628;1288;139219;-68
2022/12/07 10:41:57;;;;;;;8.30;6.90;;;;;;;2.55;86.51;99037.80;209359;1291;139847;-68
2022/12/07 10:47:27;;;;;;;7.70;6.40;;;;;;;2.60;86.41;99032.96;210831;1300;140377;-68
2022/12/07 10:52:43;;;;;;;8.70;7.40;;;;;;;2.57;86.33;99032.34;210417;1295;139006;-68
2022/12/07 10:58:14;;;;;;;9.80;8.40;;;;;;;2.59;86.43;99029.76;210437;1294;139136;-68
2022/12/07 11:03:44;;;;;;;9.90;7.70;;;;;;;2.60;85.64;99029.61;207241;1278;139576;-68
2022/12/07 11:08:55;;;;;;;11.20;9.60;;;;;;;2.45;85.58;99033.21;210326;1285;140010;-68
2022/12/07 11:14:21;;;;;;;9.70;7.70;;;;;;;2.36;85.50;99029.56;210771;1298;139438;-68
2022/12/07 11:19:59;;;;;;;10.30;8.30;;;;;;;2.33;85.21;99021.34;210696;1291;140738;-68
2022/12/07 11:25:09;;;;;;;11.10;7.50;;;;;;;2.23;85.61;99008.04;210488;1299;245218;-68
2022/12/07 11:30:42;;;;;;;9.60;7.50;;;;;;;2.26;85.43;99002.67;208998;1279;162746;-68
2022/12/07 11:35:46;;;;;;;12.80;7.80;;;;;;;2.34;85.61;98994.85;210430;1295;140470;-68
2022/12/07 11:40:54;;;;;;;9.70;7.50;;;;;;;2.39;85.29;98992.23;210458;1295;139253;-69
2022/12/07 11:46:15;;;;;;;11.80;8.60;;;;;;;2.43;85.05;98992.52;210402;1295;149697;-68
2022/12/07 11:51:22;;;;;;;9.00;7.30;;;;;;;2.52;85.10;98989.71;210614;1292;141687;-68
2022/12/07 11:56:36;;;;;;;8.40;6.60;;;;;;;2.61;85.12;98986.09;210413;1285;139273;-69
2022/12/07 12:01:52;;;;;;;7.90;6.50;;;;;;;2.64;85.18;98979.77;210558;1301;139945;-69
2022/12/07 12:06:56;;;;;;;10.20;6.80;;;;;;;2.69;84.91;98973.10;210411;1295;139815;-69
2022/12/07 12:12:23;;;;;;;12.90;6.60;;;;;;;2.73;85.18;98972.59;210332;1289;139848;-68
2022/12/07 12:18:01;;;;;;;9.10;6.80;;;;;;;2.71;84.86;98961.29;210360;1290;222574;-67
2022/12/07 12:23:39;;;;;;;8.10;5.90;;;;;;;2.80;85.00;98961.51;210379;1295;139935;-69
2022/12/07 12:28:58;;;;;;;9.00;7.10;;;;;;;2.87;85.11;98958.30;210319;1293;140184;-68
2022/12/07 12:34:24;;;;;;;8.60;6.10;;;;;;;2.84;84.83;98952.27;210330;1287;139121;-68
2022/12/07 12:39:28;;;;;;;7.60;5.40;;;;;;;2.85;84.95;98947.09;210482;1294;139733;-68
2022/12/07 12:44:32;;;;;;;9.70;6.80;;;;;;;2.78;84.93;98935.88;210486;1291;140314;-68
2022/12/07 12:49:40;;;;;;;8.30;6.40;;;;;;;2.74;84.91;98932.24;210625;1288;138944;-68
2022/12/07 12:55:20;;;;;;;10.70;5.80;;;;;;;2.68;84.88;98930.11;210352;1294;139743;-69
2022/12/07 13:00:29;;;;;;;7.50;5.70;;;;;;;2.62;84.74;98924.40;210339;1295;140350;-68
2022/12/07 13:05:33;;;;;;;9.60;6.30;;;;;;;2.57;85.29;98921.04;207387;1294;139443;-68
2022/12/07 13:10:43;;;;;;;11.30;6.40;;;;;;;2.53;85.36;98925.05;207260;1292;138520;-68
2022/12/07 13:16:07;;;;;;;11.60;7.00;;;;;;;2.47;85.13;98921.44;210281;1295;139418;-68
2022/12/07 13:21:11;;;;;;;11.50;7.60;;;;;;;2.51;85.16;98915.20;210554;1295;140312;-68
2022/12/07 13:26:19;;;;;;;14.60;8.80;;;;;;;2.44;85.31;98912.54;210379;1279;153944;-68
2022/12/07 13:31:45;;;;;;;11.00;7.30;;;;;;;2.39;85.38;98915.21;207502;1289;139015;-67
2022/12/07 13:36:51;;;;;;;13.20;8.30;;;;;;;2.38;85.28;98912.52;209627;1285;139584;-68
2022/12/07 13:41:57;;;;;;;12.00;7.80;;;;;;;2.36;85.40;98921.58;210430;1281;140175;-68
2022/12/07 13:47:25;;;;;;;12.50;7.40;;;;;;;2.26;85.85;98916.34;210451;1291;140666;-67
2022/12/07 13:52:31;;;;;;;11.00;8.40;;;;;;;2.23;85.66;98915.77;210659;1296;139939;-68
2022/12/07 13:57:36;;;;;;;13.50;7.50;;;;;;;2.25;85.70;98919.81;210240;1295;141029;-69
2022/12/07 14:02:55;;;;;;;48.50;32.40;;;;;;;2.23;86.12;98916.93;210627;1287;139742;-69
2022/12/07 14:08:22;;;;;;;18.40;14.90;;;;;;;2.30;86.23;98920.06;210576;1292;141030;-67
2022/12/07 14:13:30;;;;;;;19.20;13.50;;;;;;;2.35;86.10;98924.64;210377;1295;140273;-67
2022/12/07 14:18:39;;;;;;;11.90;9.50;;;;;;;2.31;86.12;98927.75;210244;1295;140044;-67
2022/12/07 14:23:44;;;;;;;12.90;8.10;;;;;;;2.29;86.32;98928.11;210587;1295;139309;-68
2022/12/07 14:28:49;;;;;;;10.90;7.70;;;;;;;2.33;85.88;98924.60;210398;1294;141212;-70
2022/12/07 14:33:53;;;;;;;12.20;9.30;;;;;;;2.27;86.02;98921.06;210540;1295;139976;-71
2022/12/07 14:38:57;;;;;;;15.20;10.80;;;;;;;2.23;86.20;98912.56;210264;1294;139453;-71
2022/12/07 14:44:08;;;;;;;12.90;7.70;;;;;;;2.26;85.99;98916.14;210413;1295;141616;-70
2022/12/07 14:49:26;;;;;;;12.60;7.70;;;;;;;2.24;85.97;98913.42;210573;1300;140277;-68
2022/12/07 14:54:40;;;;;;;11.00;8.50;;;;;;;2.19;85.94;98914.09;207691;1286;138598;-67
2022/12/07 14:59:47;;;;;;;11.30;6.70;;;;;;;2.19;85.93;98913.28;207300;1278;139336;-64
2022/12/07 15:04:53;;;;;;;9.60;7.10;;;;;;;2.16;86.22;98907.55;210448;1295;221372;-65
2022/12/07 15:09:56;;;;;;;13.80;8.80;;;;;;;2.15;86.15;98904.38;209956;1289;138962;-66
2022/12/07 15:15:01;;;;;;;18.70;8.70;;;;;;;2.19;86.41;98902.36;209476;1294;139483;-68
2022/12/07 15:20:11;;;;;;;12.60;8.50;;;;;;;2.22;86.24;98900.79;210430;1295;139484;-71
2022/12/07 15:25:16;;;;;;;12.20;9.00;;;;;;;2.16;86.00;98905.77;210362;1294;247333;-66
2022/12/07 15:30:21;;;;;;;15.20;11.20;;;;;;;2.16;86.00;98904.50;209532;1294;139042;-69
2022/12/07 15:35:25;;;;;;;11.10;9.30;;;;;;;2.17;85.99;98909.24;207872;1286;140398;-66
2022/12/07 15:40:29;;;;;;;14.30;12.70;;;;;;;2.09;86.08;98914.99;210121;1295;139883;-67
2022/12/07 15:45:33;;;;;;;9.20;7.10;;;;;;;2.05;86.28;98919.52;210600;1295;139971;-67
2022/12/07 15:50:36;;;;;;;6.70;6.00;;;;;;;2.00;85.49;98926.98;210604;1298;141564;-68
2022/12/07 15:55:41;;;;;;;10.30;7.30;;;;;;;1.91;85.38;98926.34;210351;1294;139423;-69
2022/12/07 16:00:47;;;;;;;13.40;8.60;;;;;;;1.88;85.96;98929.58;210313;1294;139590;-68
2022/12/07 16:05:55;;;;;;;10.40;7.20;;;;;;;1.89;85.90;98929.09;210333;1287;139584;-69
2022/12/07 16:10:59;;;;;;;14.40;8.20;;;;;;;1.85;85.38;98927.87;210220;1294;140854;-67
2022/12/07 16:16:07;;;;;;;10.40;5.80;;;;;;;1.75;85.55;98931.36;210481;1295;140565;-68
2022/12/07 16:21:12;;;;;;;10.80;8.00;;;;;;;1.72;85.73;98934.39;209919;1295;349132;-67
2022/12/07 16:26:18;;;;;;;12.20;6.70;;;;;;;1.70;85.58;98943.55;210483;1292;140206;-67
2022/12/07 16:31:25;;;;;;;7.40;6.40;;;;;;;1.63;85.86;98943.33;210372;1295;139919;-66
2022/12/07 16:36:29;;;;;;;11.00;7.30;;;;;;;1.65;85.84;98947.58;210319;1297;140614;-65
2022/12/07 16:41:53;;;;;;;9.90;8.30;;;;;;;1.68;86.01;98953.89;209986;1301;140136;-66
2022/12/07 16:46:57;;;;;;;8.10;6.60;;;;;;;1.63;86.05;98951.96;209366;1285;140204;-68
2022/12/07 16:52:00;;;;;;;10.40;6.20;;;;;;;1.65;86.22;98956.95;210444;1295;139251;-67
2022/12/07 16:57:22;;;;;;;9.40;7.40;;;;;;;1.73;86.31;98952.27;210453;1296;236261;-67
2022/12/07 17:02:26;;;;;;;9.40;6.50;;;;;;;1.75;86.27;98955.17;210458;1285;140770;-66
2022/12/07 17:07:30;;;;;;;8.50;6.50;;;;;;;1.72;85.98;98956.94;210336;1287;139291;-67
2022/12/07 17:12:34;;;;;;;7.90;6.30;;;;;;;1.74;86.04;98959.70;208335;1286;139448;-66
2022/12/07 17:17:39;;;;;;;11.50;6.70;;;;;;;1.64;85.90;98962.29;210199;1294;139586;-67
2022/12/07 17:22:44;;;;;;;10.00;6.80;;;;;;;1.56;85.57;98965.79;210481;1295;141363;-65
2022/12/07 17:27:50;;;;;;;10.10;7.70;;;;;;;1.61;85.90;98976.00;210373;1284;141088;-66
2022/12/07 17:32:54;;;;;;;7.80;6.30;;;;;;;1.58;85.72;98988.31;209642;1291;142455;-65
2022/12/07 17:37:58;;;;;;;13.20;5.80;;;;;;;1.50;85.65;98991.04;210468;1286;139083;-66
2022/12/07 17:43:02;;;;;;;9.00;6.50;;;;;;;1.46;85.46;98999.86;209082;1286;139412;-67
2022/12/07 17:48:06;;;;;;;6.00;4.70;;;;;;;1.35;85.93;98998.63;210604;1285;139096;-66
2022/12/07 17:53:12;;;;;;;8.20;7.20;;;;;;;1.30;85.87;99005.54;210402;1292;235682;-67
2022/12/07 17:58:16;;;;;;;8.40;5.40;;;;;;;1.27;85.85;99013.36;210445;1279;139869;-67
2022/12/07 18:03:21;;;;;;;7.40;5.30;;;;;;;1.18;85.59;99019.45;210293;1295;141951;-66
2022/12/07 18:08:26;;;;;;;9.00;5.50;;;;;;;1.16;85.46;99025.34;210436;1285;140911;-64
2022/12/07 18:13:36;;;;;;;7.70;4.90;;;;;;;1.11;85.76;99021.27;210166;1295;142905;-66
2022/12/07 18:18:41;;;;;;;6.70;6.10;;;;;;;1.02;85.31;99030.36;210429;1303;223823;-68
2022/12/07 18:23:56;;;;;;;7.30;4.80;;;;;;;1.01;85.41;99025.66;210487;1293;140039;-64
2022/12/07 18:29:00;;;;;;;5.90;4.50;;;;;;;1.00;85.41;99023.83;210564;1295;140184;-66
2022/12/07 18:34:10;;;;;;;6.40;3.80;;;;;;;0.92;85.39;99023.81;210328;1292;141152;-66
2022/12/07 18:39:17;;;;;;;6.00;4.30;;;;;;;0.90;84.94;99020.23;210544;1295;140063;-66
2022/12/07 18:44:22;;;;;;;10.80;7.30;;;;;;;0.86;85.09;99018.73;210413;1292;141084;-66
2022/12/07 18:49:27;;;;;;;4.90;4.40;;;;;;;0.78;85.23;99021.56;208708;1295;218897;-66
2022/12/07 18:54:33;;;;;;;5.40;4.20;;;;;;;0.75;84.92;99026.66;210423;1286;140424;-65
2022/12/07 18:59:45;;;;;;;9.00;4.10;;;;;;;0.68;85.07;99030.23;210380;1287;141287;-67
2022/12/07 19:04:50;;;;;;;6.00;5.20;;;;;;;0.61;84.88;99030.30;210464;1295;245322;-66
2022/12/07 19:09:55;;;;;;;8.10;7.30;;;;;;;0.57;85.21;99033.02;210192;1295;139145;-66
2022/12/07 19:14:59;;;;;;;4.70;3.60;;;;;;;0.61;85.09;99033.52;210107;1295;140026;-67
2022/12/07 19:20:06;;;;;;;6.80;4.80;;;;;;;0.59;85.02;99033.23;210398;1294;140510;-67
2022/12/07 19:25:10;;;;;;;7.90;5.40;;;;;;;0.52;85.01;99027.68;210191;1294;139765;-66
2022/12/07 19:30:14;;;;;;;6.30;5.20;;;;;;;0.53;85.03;99029.86;210278;1295;140300;-67
2022/12/07 19:35:20;;;;;;;11.40;4.70;;;;;;;0.54;85.40;99029.95;210160;1293;140143;-68
2022/12/07 19:40:23;;;;;;;9.50;5.60;;;;;;;0.54;85.08;99033.67;210287;1293;139848;-67
2022/12/07 19:45:29;;;;;;;6.40;3.90;;;;;;;0.56;85.28;99031.95;209525;1294;140381;-66
2022/12/07 19:50:33;;;;;;;6.20;4.80;;;;;;;0.57;85.08;99036.69;209007;1292;139713;-66
2022/12/07 19:55:42;;;;;;;11.70;5.70;;;;;;;0.59;85.31;99042.42;208370;1288;139407;-65
2022/12/07 20:00:48;;;;;;;5.90;4.50;;;;;;;0.57;85.38;99040.07;210380;1298;233553;-65
2022/12/07 20:05:52;;;;;;;7.40;5.90;;;;;;;0.55;85.18;99036.59;210143;1301;140702;-66
2022/12/07 20:10:57;;;;;;;8.10;4.80;;;;;;;0.61;85.11;99032.40;209644;1294;140494;-65
2022/12/07 20:16:04;;;;;;;6.10;4.90;;;;;;;0.59;85.03;99035.21;210217;1295;141200;-65
2022/12/07 20:21:23;;;;;;;7.60;5.20;;;;;;;0.54;84.79;99035.72;210527;1295;139241;-65
2022/12/07 20:26:27;;;;;;;7.20;5.60;;;;;;;0.52;84.71;99032.10;210520;1298;160027;-66
2022/12/07 20:31:31;;;;;;;7.50;5.50;;;;;;;0.49;84.49;99029.42;210368;1295;141632;-68
2022/12/07 20:36:35;;;;;;;7.40;5.20;;;;;;;0.45;85.27;99031.35;210335;1295;140022;-70
2022/12/07 20:47:02;;;;;;;8.60;5.60;;;;;;;0.54;85.35;99034.27;210477;1295;139252;-68
2022/12/07 20:52:05;;;;;;;7.20;5.40;;;;;;;0.64;85.26;99033.21;210320;1298;140280;-69
2022/12/07 20:57:09;;;;;;;17.10;6.20;;;;;;;0.68;85.35;99025.50;210417;1295;140361;-68
2022/12/07 21:02:13;;;;;;;12.90;10.20;;;;;;;0.75;85.66;99023.48;210363;1300;145799;-68
2022/12/07 21:07:18;;;;;;;9.20;5.70;;;;;;;0.84;85.58;99054.89;210307;1298;144835;-66
2022/12/07 21:12:22;;;;;;;6.10;2.80;;;;;;;0.82;85.06;99067.54;210432;1298;140409;-66
2022/12/07 21:17:27;;;;;;;10.30;5.50;;;;;;;0.63;84.85;99067.20;208761;1286;141061;-67
2022/12/07 21:22:31;;;;;;;4.80;2.90;;;;;;;0.45;84.15;99061.48;210454;1295;139142;-65
2022/12/07 21:27:35;;;;;;;2.30;2.00;;;;;;;0.39;84.67;99058.63;210646;1292;139970;-65
2022/12/07 21:32:40;;;;;;;5.10;2.20;;;;;;;0.39;84.75;99054.28;210239;1295;139080;-65
2022/12/07 21:37:44;;;;;;;4.40;3.60;;;;;;;0.39;85.00;99058.59;210377;1293;140454;-68
2022/12/07 21:42:52;;;;;;;2.80;2.10;;;;;;;0.40;84.97;99068.48;209824;1301;139048;-67
2022/12/07 21:47:56;;;;;;;6.90;2.80;;;;;;;0.45;84.89;99076.33;210183;1291;139138;-65
2022/12/07 21:53:00;;;;;;;4.30;3.10;;;;;;;0.41;84.97;99076.89;209737;1285;139832;-65
2022/12/07 21:58:11;;;;;;;3.60;2.30;;;;;;;0.29;85.00;99075.56;210405;1301;217697;-67
2022/12/07 22:03:14;;;;;;;8.30;7.70;;;;;;;0.27;85.06;99070.26;210231;1295;139826;-64
2022/12/07 22:08:18;;;;;;;7.90;3.90;;;;;;;0.29;85.01;99067.58;210413;1292;139654;-67
2022/12/07 22:15:04;;;;;;;3.80;3.50;;;;;;;0.27;85.52;99066.72;210326;1298;140256;-64
2022/12/07 22:18:46;;;;;;;3.20;2.20;;;;;;;0.29;85.54;99068.27;210450;1300;139501;-64
2022/12/07 22:23:50;;;;;;;3.50;2.90;;;;;;;0.36;85.46;99074.36;210397;1294;141055;-64
2022/12/07 22:28:53;;;;;;;3.30;1.90;;;;;;;0.44;85.86;99081.80;210483;1301;139307;-64
2022/12/07 22:33:57;;;;;;;3.40;2.30;;;;;;;0.46;85.78;99083.56;210467;1298;139596;-66
2022/12/07 22:39:00;;;;;;;5.20;2.40;;;;;;;0.47;85.64;99082.45;210353;1300;140106;-66
2022/12/07 22:44:09;;;;;;;4.20;2.20;;;;;;;0.52;85.17;99079.76;210260;1301;139080;-69
2022/12/07 22:49:12;;;;;;;3.40;2.50;;;;;;;0.50;85.33;99083.17;210057;1295;139366;-64
2022/12/07 22:54:16;;;;;;;1.30;1.20;;;;;;;0.47;85.44;99084.23;210470;1295;138707;-67
2022/12/07 22:59:19;;;;;;;2.10;1.70;;;;;;;0.47;85.36;99087.92;210341;1298;139363;-65
2022/12/07 23:04:23;;;;;;;3.80;3.40;;;;;;;0.51;85.05;99093.26;210548;1299;139233;-64
2022/12/07 23:09:27;;;;;;;4.10;3.40;;;;;;;0.53;85.05;99096.92;210481;1297;235978;-65
2022/12/07 23:14:33;;;;;;;13.20;11.80;;;;;;;0.54;85.29;99097.34;209665;1298;139669;-66
2022/12/07 23:19:37;;;;;;;5.20;3.00;;;;;;;0.58;85.23;99104.37;210128;1294;140444;-66
2022/12/07 23:24:40;;;;;;;3.20;3.00;;;;;;;0.63;84.94;99104.59;210079;1296;140455;-67
2022/12/07 23:29:45;;;;;;;4.30;2.60;;;;;;;0.55;84.47;99111.02;208237;1286;139728;-65
2022/12/07 23:34:49;;;;;;;2.50;2.30;;;;;;;0.50;84.63;99106.73;210337;1295;140132;-66
2022/12/07 23:39:53;;;;;;;5.10;3.20;;;;;;;0.51;84.53;99107.99;210391;1295;141009;-63
2022/12/07 23:44:57;;;;;;;6.00;2.60;;;;;;;0.50;84.79;99105.20;210433;1285;140838;-62
2022/12/07 23:50:03;;;;;;;3.90;2.00;;;;;;;0.48;84.68;99114.08;210163;1300;139295;-63
2022/12/07 23:55:07;;;;;;;2.40;1.80;;;;;;;0.44;84.57;99110.52;209830;1287;140165;-67
